Accueil
METAR-TAF:

METAR-TAF

Aéroports :

Cassel, Allemagne

latitude: 51-24N, longitude: 009-23E, altitude: 277 m

Observation

Le bulletin a été fait il y a 10 heures et 8 minutes, à 18:50 UTC
Vent 4 kt de nord-ouest
Température 8°C
Humidité 81%
Pression 1030 hPa
Visibilité: 6000 m
Ciel couvert à une hauteur de 3100 ft

METAR: EDVK 231850Z 32004KT 6000 OVC031 08/05 Q1030

Heure: 05:58 (04:58 UTC)

Prévision

Le bulletin a été fait il y a 11 heures et 58 minutes, à 17:00 UTC
Prévision valable du 23 à 18 UTC au 24 à 03 UTC
Vent 5 kt de nord
Visibilité: 8000 m
Quelques nuages à une hauteur de 1200 ft
Evoluant progressivement
du 23 à 18 UTC au 23 à 21 UTC
Visibilité: 4500 m
Nuages fragmentés à une hauteur de 1200 ft
brume
Temporairement
du 23 à 21 UTC au 24 à 03 UTC
Ciel couvert à une hauteur de 800 ft

TAF: EDVK 231700Z 2318/2403 35005KT 8000 FEW012 BECMG 2318/2321 4500 BR BKN012 TEMPO 2321/2403 OVC008

Observations et prévisions météorologiques de plus de 4000 aéroports (messages METAR et TAF).

Les stations disponibles sont représentées par des disques jaunes et rouges sur la carte.

Passer la souris dessus pour voir le nom de la station.

Cliquer dessus pour voir les observations et prévisions météorologiques.

Pour changer de carte: cliquez sur les boutons verts avec une croix noire pour zoomer, sur le bouton vert avec un tiret pour effectuer un zoom arrière, ou sur les flèches vertes pour les cartes adjacentes.


METAR-TAF: